sensor_id;sensor_type;location;lat;lon;timestamp;pressure;altitude;pressure_sealevel;temperature;humidity
19777;BME280;10047;42.490;26.012;2023-08-06T00:01:50;100900.16;;;24.48;100.00
19777;BME280;10047;42.490;26.012;2023-08-06T00:04:15;100877.28;;;24.40;100.00
19777;BME280;10047;42.490;26.012;2023-08-06T00:06:41;100903.84;;;24.56;100.00
19777;BME280;10047;42.490;26.012;2023-08-06T00:09:06;100894.44;;;24.79;100.00
19777;BME280;10047;42.490;26.012;2023-08-06T00:11:32;100882.09;;;24.93;100.00
19777;BME280;10047;42.490;26.012;2023-08-06T00:13:57;100844.94;;;24.68;100.00
19777;BME280;10047;42.490;26.012;2023-08-06T00:16:23;100757.22;;;24.23;100.00
19777;BME280;10047;42.490;26.012;2023-08-06T00:18:48;100831.66;;;24.60;100.00
19777;BME280;10047;42.490;26.012;2023-08-06T00:21:13;100799.28;;;24.40;100.00
19777;BME280;10047;42.490;26.012;2023-08-06T00:23:40;100757.06;;;24.37;100.00
19777;BME280;10047;42.490;26.012;2023-08-06T00:26:05;100784.72;;;24.38;100.00
19777;BME280;10047;42.490;26.012;2023-08-06T00:28:31;100823.88;;;24.71;100.00
19777;BME280;10047;42.490;26.012;2023-08-06T00:30:56;100756.72;;;24.41;100.00
19777;BME280;10047;42.490;26.012;2023-08-06T00:33:22;100743.72;;;24.41;100.00
19777;BME280;10047;42.490;26.012;2023-08-06T00:35:48;100791.34;;;24.65;100.00
19777;BME280;10047;42.490;26.012;2023-08-06T00:38:13;100767.81;;;24.67;100.00
19777;BME280;10047;42.490;26.012;2023-08-06T00:40:38;100670.63;;;24.22;100.00
19777;BME280;10047;42.490;26.012;2023-08-06T00:43:04;100649.41;;;24.39;100.00
19777;BME280;10047;42.490;26.012;2023-08-06T00:45:30;100585.59;;;24.46;100.00
19777;BME280;10047;42.490;26.012;2023-08-06T00:47:59;100498.84;;;24.36;100.00
19777;BME280;10047;42.490;26.012;2023-08-06T00:50:25;100394.72;;;24.27;100.00
19777;BME280;10047;42.490;26.012;2023-08-06T00:52:51;100292.09;;;24.10;100.00
19777;BME280;10047;42.490;26.012;2023-08-06T00:55:16;100241.94;;;24.30;100.00
19777;BME280;10047;42.490;26.012;2023-08-06T00:57:42;100110.44;;;23.96;100.00
19777;BME280;10047;42.490;26.012;2023-08-06T01:00:08;100066.25;;;24.28;100.00
19777;BME280;10047;42.490;26.012;2023-08-06T01:02:33;99931.75;;;23.99;100.00
19777;BME280;10047;42.490;26.012;2023-08-06T01:04:59;99903.72;;;24.24;100.00
19777;BME280;10047;42.490;26.012;2023-08-06T01:12:45;99656.16;;;24.02;100.00
19777;BME280;10047;42.490;26.012;2023-08-06T01:15:25;99657.50;;;24.26;100.00
19777;BME280;10047;42.490;26.012;2023-08-06T01:17:53;99620.59;;;24.22;100.00
19777;BME280;10047;42.490;26.012;2023-08-06T01:20:19;99584.34;;;24.30;100.00
19777;BME280;10047;42.490;26.012;2023-08-06T01:22:44;99531.53;;;24.30;100.00
19777;BME280;10047;42.490;26.012;2023-08-06T01:25:10;99457.19;;;24.00;100.00
19777;BME280;10047;42.490;26.012;2023-08-06T01:30:22;99352.53;;;24.17;100.00
19777;BME280;10047;42.490;26.012;2023-08-06T01:32:53;99233.41;;;24.22;100.00
19777;BME280;10047;42.490;26.012;2023-08-06T01:35:19;99118.50;;;23.66;100.00
19777;BME280;10047;42.490;26.012;2023-08-06T01:37:47;98942.50;;;23.69;100.00
19777;BME280;10047;42.490;26.012;2023-08-06T01:40:13;98930.19;;;23.97;100.00
19777;BME280;10047;42.490;26.012;2023-08-06T01:42:39;98813.63;;;23.86;100.00
19777;BME280;10047;42.490;26.012;2023-08-06T01:45:06;98837.13;;;24.10;100.00
19777;BME280;10047;42.490;26.012;2023-08-06T01:47:32;98797.69;;;24.06;100.00
19777;BME280;10047;42.490;26.012;2023-08-06T01:49:57;98745.47;;;23.92;100.00
19777;BME280;10047;42.490;26.012;2023-08-06T01:52:23;98582.19;;;23.73;100.00
19777;BME280;10047;42.490;26.012;2023-08-06T01:54:48;98520.69;;;23.89;100.00
19777;BME280;10047;42.490;26.012;2023-08-06T01:57:13;98528.47;;;23.73;100.00
19777;BME280;10047;42.490;26.012;2023-08-06T01:59:39;98527.19;;;23.85;100.00
19777;BME280;10047;42.490;26.012;2023-08-06T02:02:04;98450.28;;;23.60;100.00
19777;BME280;10047;42.490;26.012;2023-08-06T02:04:30;98486.63;;;23.84;100.00
19777;BME280;10047;42.490;26.012;2023-08-06T02:06:55;98487.94;;;23.80;100.00
19777;BME280;10047;42.490;26.012;2023-08-06T02:09:21;98472.19;;;23.82;100.00
19777;BME280;10047;42.490;26.012;2023-08-06T02:11:46;98456.31;;;23.61;100.00
19777;BME280;10047;42.490;26.012;2023-08-06T02:14:11;98394.78;;;23.69;100.00
19777;BME280;10047;42.490;26.012;2023-08-06T02:16:37;98403.59;;;23.52;100.00
19777;BME280;10047;42.490;26.012;2023-08-06T02:19:02;98389.78;;;23.68;100.00
19777;BME280;10047;42.490;26.012;2023-08-06T02:21:28;98468.94;;;24.04;100.00
19777;BME280;10047;42.490;26.012;2023-08-06T02:23:53;98488.25;;;23.45;100.00
19777;BME280;10047;42.490;26.012;2023-08-06T02:26:19;98499.28;;;23.71;100.00
19777;BME280;10047;42.490;26.012;2023-08-06T02:28:44;98456.13;;;23.38;100.00
19777;BME280;10047;42.490;26.012;2023-08-06T02:31:10;98510.63;;;23.54;100.00
19777;BME280;10047;42.490;26.012;2023-08-06T02:33:35;98465.22;;;23.50;100.00
19777;BME280;10047;42.490;26.012;2023-08-06T02:36:01;98516.31;;;23.82;100.00
19777;BME280;10047;42.490;26.012;2023-08-06T02:38:28;98497.00;;;23.60;100.00
19777;BME280;10047;42.490;26.012;2023-08-06T02:40:54;98504.94;;;23.35;100.00
19777;BME280;10047;42.490;26.012;2023-08-06T02:43:19;98564.94;;;23.48;100.00
19777;BME280;10047;42.490;26.012;2023-08-06T02:45:45;98567.41;;;23.65;100.00
19777;BME280;10047;42.490;26.012;2023-08-06T02:48:10;98569.50;;;23.62;100.00
19777;BME280;10047;42.490;26.012;2023-08-06T02:50:39;98565.47;;;23.83;100.00
19777;BME280;10047;42.490;26.012;2023-08-06T02:53:06;98592.22;;;23.68;100.00
19777;BME280;10047;42.490;26.012;2023-08-06T02:55:32;98617.03;;;23.62;100.00
19777;BME280;10047;42.490;26.012;2023-08-06T02:57:57;98586.00;;;23.03;100.00
19777;BME280;10047;42.490;26.012;2023-08-06T03:00:23;98658.56;;;23.28;100.00
19777;BME280;10047;42.490;26.012;2023-08-06T03:02:48;98556.44;;;22.88;100.00
19777;BME280;10047;42.490;26.012;2023-08-06T03:05:14;98608.94;;;23.15;100.00
19777;BME280;10047;42.490;26.012;2023-08-06T03:07:40;98571.59;;;23.08;100.00
19777;BME280;10047;42.490;26.012;2023-08-06T03:10:06;98617.19;;;23.19;100.00
19777;BME280;10047;42.490;26.012;2023-08-06T03:12:31;98686.53;;;23.35;100.00
19777;BME280;10047;42.490;26.012;2023-08-06T03:14:57;98639.13;;;22.99;100.00
19777;BME280;10047;42.490;26.012;2023-08-06T03:17:22;98712.75;;;23.32;100.00
19777;BME280;10047;42.490;26.012;2023-08-06T03:19:47;98700.75;;;23.31;100.00
19777;BME280;10047;42.490;26.012;2023-08-06T03:22:13;98738.69;;;23.32;100.00
19777;BME280;10047;42.490;26.012;2023-08-06T03:24:38;98704.41;;;23.20;100.00
19777;BME280;10047;42.490;26.012;2023-08-06T03:27:04;98720.28;;;23.17;100.00
19777;BME280;10047;42.490;26.012;2023-08-06T03:29:29;98800.88;;;23.41;100.00
19777;BME280;10047;42.490;26.012;2023-08-06T03:31:55;98752.00;;;23.11;100.00
19777;BME280;10047;42.490;26.012;2023-08-06T03:34:20;98824.03;;;23.60;100.00
19777;BME280;10047;42.490;26.012;2023-08-06T03:36:45;98825.34;;;23.39;100.00
19777;BME280;10047;42.490;26.012;2023-08-06T03:39:11;98834.41;;;23.60;100.00
19777;BME280;10047;42.490;26.012;2023-08-06T03:41:36;98844.13;;;23.58;100.00
19777;BME280;10047;42.490;26.012;2023-08-06T03:44:02;98862.09;;;23.52;100.00
19777;BME280;10047;42.490;26.012;2023-08-06T03:46:29;98861.63;;;23.56;100.00
19777;BME280;10047;42.490;26.012;2023-08-06T03:48:54;98875.28;;;23.84;100.00
19777;BME280;10047;42.490;26.012;2023-08-06T03:51:20;98877.25;;;23.90;100.00
19777;BME280;10047;42.490;26.012;2023-08-06T03:53:45;98850.31;;;23.65;100.00
19777;BME280;10047;42.490;26.012;2023-08-06T03:56:10;98907.66;;;23.72;100.00
19777;BME280;10047;42.490;26.012;2023-08-06T03:58:36;98926.97;;;23.77;100.00
19777;BME280;10047;42.490;26.012;2023-08-06T04:01:02;98931.38;;;23.77;100.00
19777;BME280;10047;42.490;26.012;2023-08-06T04:03:28;98875.81;;;23.70;100.00
19777;BME280;10047;42.490;26.012;2023-08-06T04:05:54;98932.06;;;23.87;100.00
19777;BME280;10047;42.490;26.012;2023-08-06T04:08:19;98927.53;;;23.81;100.00
19777;BME280;10047;42.490;26.012;2023-08-06T04:10:45;98974.38;;;23.79;100.00
19777;BME280;10047;42.490;26.012;2023-08-06T04:13:10;98921.25;;;23.48;100.00
19777;BME280;10047;42.490;26.012;2023-08-06T04:15:36;98994.41;;;23.69;100.00
19777;BME280;10047;42.490;26.012;2023-08-06T04:18:01;98982.06;;;23.89;100.00
19777;BME280;10047;42.490;26.012;2023-08-06T04:20:26;98984.91;;;23.95;100.00
19777;BME280;10047;42.490;26.012;2023-08-06T04:22:54;99011.78;;;24.04;100.00
19777;BME280;10047;42.490;26.012;2023-08-06T04:25:20;98948.22;;;23.55;100.00
19777;BME280;10047;42.490;26.012;2023-08-06T04:27:49;99022.47;;;24.27;100.00
19777;BME280;10047;42.490;26.012;2023-08-06T04:30:15;98985.69;;;23.70;100.00
19777;BME280;10047;42.490;26.012;2023-08-06T04:32:40;99027.78;;;24.17;100.00
19777;BME280;10047;42.490;26.012;2023-08-06T04:35:06;99038.00;;;24.19;100.00
19777;BME280;10047;42.490;26.012;2023-08-06T04:37:31;99027.78;;;23.99;100.00
19777;BME280;10047;42.490;26.012;2023-08-06T04:39:57;99033.69;;;24.27;100.00
19777;BME280;10047;42.490;26.012;2023-08-06T04:42:22;99055.34;;;24.87;100.00
19777;BME280;10047;42.490;26.012;2023-08-06T04:44:48;99091.06;;;24.77;100.00
19777;BME280;10047;42.490;26.012;2023-08-06T04:47:13;99052.63;;;24.20;100.00
19777;BME280;10047;42.490;26.012;2023-08-06T04:49:38;99135.78;;;24.63;100.00
19777;BME280;10047;42.490;26.012;2023-08-06T04:52:04;99084.34;;;24.49;100.00
19777;BME280;10047;42.490;26.012;2023-08-06T04:54:30;99070.50;;;24.40;100.00
19777;BME280;10047;42.490;26.012;2023-08-06T04:56:55;99195.13;;;25.11;100.00
19777;BME280;10047;42.490;26.012;2023-08-06T04:59:22;99184.47;;;24.96;100.00
19777;BME280;10047;42.490;26.012;2023-08-06T05:01:47;99263.72;;;24.84;100.00
19777;BME280;10047;42.490;26.012;2023-08-06T05:04:13;99232.59;;;24.74;100.00
19777;BME280;10047;42.490;26.012;2023-08-06T05:06:38;99285.22;;;25.55;100.00
19777;BME280;10047;42.490;26.012;2023-08-06T05:09:04;99290.84;;;25.25;100.00
19777;BME280;10047;42.490;26.012;2023-08-06T05:11:30;99308.03;;;25.18;100.00
19777;BME280;10047;42.490;26.012;2023-08-06T05:13:55;99386.91;;;25.71;100.00
19777;BME280;10047;42.490;26.012;2023-08-06T05:16:21;99335.09;;;25.42;100.00
19777;BME280;10047;42.490;26.012;2023-08-06T05:18:46;99377.69;;;25.24;100.00
19777;BME280;10047;42.490;26.012;2023-08-06T05:21:11;99450.38;;;25.52;100.00
19777;BME280;10047;42.490;26.012;2023-08-06T05:23:37;99422.41;;;25.37;100.00
19777;BME280;10047;42.490;26.012;2023-08-06T05:26:02;99411.25;;;25.09;100.00
19777;BME280;10047;42.490;26.012;2023-08-06T05:28:28;99491.75;;;26.16;100.00
19777;BME280;10047;42.490;26.012;2023-08-06T05:30:53;99538.25;;;25.68;100.00
19777;BME280;10047;42.490;26.012;2023-08-06T05:33:18;99520.63;;;26.23;100.00
19777;BME280;10047;42.490;26.012;2023-08-06T05:35:44;99536.31;;;25.88;100.00
19777;BME280;10047;42.490;26.012;2023-08-06T05:38:09;99555.31;;;25.80;100.00
19777;BME280;10047;42.490;26.012;2023-08-06T05:40:35;99584.31;;;25.85;100.00
19777;BME280;10047;42.490;26.012;2023-08-06T05:43:00;99578.13;;;26.04;100.00
19777;BME280;10047;42.490;26.012;2023-08-06T05:45:26;99674.28;;;26.42;100.00
19777;BME280;10047;42.490;26.012;2023-08-06T05:47:51;99643.06;;;25.79;100.00
19777;BME280;10047;42.490;26.012;2023-08-06T05:50:19;99687.47;;;26.40;100.00
19777;BME280;10047;42.490;26.012;2023-08-06T05:52:44;99739.25;;;26.53;100.00
19777;BME280;10047;42.490;26.012;2023-08-06T05:55:09;99770.00;;;27.28;100.00
19777;BME280;10047;42.490;26.012;2023-08-06T05:57:35;99785.91;;;26.56;100.00
19777;BME280;10047;42.490;26.012;2023-08-06T06:00:01;99817.16;;;27.01;100.00
19777;BME280;10047;42.490;26.012;2023-08-06T06:02:27;99840.13;;;27.15;100.00
19777;BME280;10047;42.490;26.012;2023-08-06T06:04:53;99840.38;;;27.04;100.00
19777;BME280;10047;42.490;26.012;2023-08-06T06:07:20;99858.00;;;27.27;100.00
19777;BME280;10047;42.490;26.012;2023-08-06T06:09:45;99816.88;;;27.29;100.00
19777;BME280;10047;42.490;26.012;2023-08-06T06:12:10;99859.81;;;28.04;100.00
19777;BME280;10047;42.490;26.012;2023-08-06T06:14:36;99863.50;;;27.68;100.00
19777;BME280;10047;42.490;26.012;2023-08-06T06:17:01;99825.63;;;27.97;100.00
19777;BME280;10047;42.490;26.012;2023-08-06T06:19:27;99831.53;;;27.99;100.00
19777;BME280;10047;42.490;26.012;2023-08-06T06:21:53;99859.06;;;28.19;100.00
19777;BME280;10047;42.490;26.012;2023-08-06T06:24:18;99867.97;;;28.51;100.00
19777;BME280;10047;42.490;26.012;2023-08-06T06:26:43;99842.38;;;28.70;100.00
19777;BME280;10047;42.490;26.012;2023-08-06T06:29:09;99810.50;;;29.15;100.00
19777;BME280;10047;42.490;26.012;2023-08-06T06:31:34;99764.41;;;29.53;100.00
19777;BME280;10047;42.490;26.012;2023-08-06T06:34:00;99680.41;;;28.75;100.00
19777;BME280;10047;42.490;26.012;2023-08-06T06:36:26;99717.34;;;29.04;100.00
19777;BME280;10047;42.490;26.012;2023-08-06T06:38:51;99618.31;;;29.47;100.00
19777;BME280;10047;42.490;26.012;2023-08-06T06:41:17;99655.84;;;29.70;100.00
19777;BME280;10047;42.490;26.012;2023-08-06T06:43:42;99635.50;;;29.02;100.00
19777;BME280;10047;42.490;26.012;2023-08-06T06:46:07;99545.06;;;28.92;100.00
19777;BME280;10047;42.490;26.012;2023-08-06T06:48:33;99591.44;;;28.35;100.00
19777;BME280;10047;42.490;26.012;2023-08-06T06:50:59;99490.47;;;28.73;100.00
19777;BME280;10047;42.490;26.012;2023-08-06T06:53:25;99512.84;;;28.83;100.00
19777;BME280;10047;42.490;26.012;2023-08-06T06:55:54;99521.03;;;30.24;100.00
19777;BME280;10047;42.490;26.012;2023-08-06T06:58:19;99480.00;;;29.94;100.00
19777;BME280;10047;42.490;26.012;2023-08-06T07:00:46;99482.91;;;29.08;100.00
19777;BME280;10047;42.490;26.012;2023-08-06T07:03:12;99423.31;;;29.10;100.00
19777;BME280;10047;42.490;26.012;2023-08-06T07:05:37;99466.81;;;28.58;100.00
19777;BME280;10047;42.490;26.012;2023-08-06T07:08:03;99434.84;;;28.32;100.00
19777;BME280;10047;42.490;26.012;2023-08-06T07:10:28;99484.31;;;28.50;100.00
19777;BME280;10047;42.490;26.012;2023-08-06T07:12:54;99406.81;;;27.86;100.00
19777;BME280;10047;42.490;26.012;2023-08-06T07:15:19;99460.28;;;28.54;100.00
19777;BME280;10047;42.490;26.012;2023-08-06T07:17:45;99461.66;;;28.26;100.00
19777;BME280;10047;42.490;26.012;2023-08-06T07:20:10;99419.53;;;28.13;100.00
19777;BME280;10047;42.490;26.012;2023-08-06T07:22:36;99409.59;;;28.47;100.00
19777;BME280;10047;42.490;26.012;2023-08-06T07:25:02;99397.22;;;28.33;100.00
19777;BME280;10047;42.490;26.012;2023-08-06T07:27:27;99406.53;;;28.74;100.00
19777;BME280;10047;42.490;26.012;2023-08-06T07:29:53;99387.91;;;28.69;100.00
19777;BME280;10047;42.490;26.012;2023-08-06T07:32:18;99428.09;;;28.76;100.00
19777;BME280;10047;42.490;26.012;2023-08-06T07:34:44;99392.22;;;28.62;100.00
19777;BME280;10047;42.490;26.012;2023-08-06T07:37:09;99422.53;;;29.02;100.00
19777;BME280;10047;42.490;26.012;2023-08-06T07:39:34;99368.44;;;28.02;100.00
19777;BME280;10047;42.490;26.012;2023-08-06T07:42:00;99371.41;;;27.75;100.00
19777;BME280;10047;42.490;26.012;2023-08-06T07:44:27;99428.78;;;28.32;100.00
19777;BME280;10047;42.490;26.012;2023-08-06T07:46:53;99366.78;;;28.01;100.00
19777;BME280;10047;42.490;26.012;2023-08-06T07:49:18;99424.00;;;28.43;100.00
19777;BME280;10047;42.490;26.012;2023-08-06T07:51:43;99388.16;;;28.05;100.00
19777;BME280;10047;42.490;26.012;2023-08-06T07:54:09;99420.28;;;28.29;100.00
19777;BME280;10047;42.490;26.012;2023-08-06T07:56:34;99373.38;;;28.28;100.00
19777;BME280;10047;42.490;26.012;2023-08-06T07:59:01;99366.50;;;27.96;100.00
19777;BME280;10047;42.490;26.012;2023-08-06T08:01:27;99341.09;;;28.05;100.00
19777;BME280;10047;42.490;26.012;2023-08-06T08:03:52;99331.50;;;27.89;100.00
19777;BME280;10047;42.490;26.012;2023-08-06T08:06:18;99280.84;;;27.43;100.00
19777;BME280;10047;42.490;26.012;2023-08-06T08:08:43;99332.84;;;27.77;100.00
19777;BME280;10047;42.490;26.012;2023-08-06T08:11:09;99255.72;;;27.42;100.00
19777;BME280;10047;42.490;26.012;2023-08-06T08:13:34;99276.22;;;27.62;100.00
19777;BME280;10047;42.490;26.012;2023-08-06T08:16:01;99352.75;;;28.02;100.00
19777;BME280;10047;42.490;26.012;2023-08-06T08:18:27;99351.31;;;27.76;100.00
19777;BME280;10047;42.490;26.012;2023-08-06T08:20:53;99389.69;;;27.83;100.00
19777;BME280;10047;42.490;26.012;2023-08-06T08:23:18;99418.09;;;27.94;100.00
19777;BME280;10047;42.490;26.012;2023-08-06T08:25:44;99371.94;;;27.55;100.00
19777;BME280;10047;42.490;26.012;2023-08-06T08:28:09;99328.03;;;27.42;100.00
19777;BME280;10047;42.490;26.012;2023-08-06T08:30:34;99429.69;;;27.84;100.00
19777;BME280;10047;42.490;26.012;2023-08-06T08:33:00;99425.94;;;26.98;100.00
19777;BME280;10047;42.490;26.012;2023-08-06T08:35:25;99490.50;;;26.54;100.00
19777;BME280;10047;42.490;26.012;2023-08-06T08:37:51;99553.28;;;25.92;100.00
19777;BME280;10047;42.490;26.012;2023-08-06T08:40:17;99560.44;;;25.54;100.00
19777;BME280;10047;42.490;26.012;2023-08-06T08:42:43;99601.03;;;24.93;100.00
19777;BME280;10047;42.490;26.012;2023-08-06T08:45:20;99653.88;;;24.84;100.00
19777;BME280;10047;42.490;26.012;2023-08-06T08:47:47;99649.81;;;24.53;100.00
19777;BME280;10047;42.490;26.012;2023-08-06T08:50:13;99631.47;;;24.64;100.00
19777;BME280;10047;42.490;26.012;2023-08-06T08:52:39;99566.25;;;24.29;100.00
19777;BME280;10047;42.490;26.012;2023-08-06T08:55:08;99481.94;;;24.14;100.00
19777;BME280;10047;42.490;26.012;2023-08-06T08:57:34;99442.13;;;24.50;100.00
19777;BME280;10047;42.490;26.012;2023-08-06T08:59:59;99346.34;;;24.72;100.00
19777;BME280;10047;42.490;26.012;2023-08-06T09:02:28;99162.56;;;24.38;100.00
19777;BME280;10047;42.490;26.012;2023-08-06T09:04:57;99138.59;;;24.26;100.00
19777;BME280;10047;42.490;26.012;2023-08-06T09:07:25;99029.31;;;24.28;100.00
19777;BME280;10047;42.490;26.012;2023-08-06T09:09:52;99086.22;;;24.39;100.00
19777;BME280;10047;42.490;26.012;2023-08-06T09:12:18;99032.63;;;23.77;100.00
19777;BME280;10047;42.490;26.012;2023-08-06T09:14:43;99037.22;;;23.83;100.00
19777;BME280;10047;42.490;26.012;2023-08-06T09:17:09;99076.47;;;23.97;100.00
19777;BME280;10047;42.490;26.012;2023-08-06T09:19:41;99001.44;;;24.12;100.00
19777;BME280;10047;42.490;26.012;2023-08-06T09:22:11;99028.97;;;24.05;100.00
19777;BME280;10047;42.490;26.012;2023-08-06T09:24:42;99091.63;;;24.20;100.00
19777;BME280;10047;42.490;26.012;2023-08-06T09:27:14;99097.56;;;23.94;100.00
19777;BME280;10047;42.490;26.012;2023-08-06T09:29:41;99097.63;;;24.20;100.00
19777;BME280;10047;42.490;26.012;2023-08-06T09:32:07;99100.66;;;24.16;100.00
19777;BME280;10047;42.490;26.012;2023-08-06T09:34:32;99055.03;;;24.13;100.00
19777;BME280;10047;42.490;26.012;2023-08-06T09:36:58;99101.44;;;24.08;100.00
19777;BME280;10047;42.490;26.012;2023-08-06T09:39:28;99111.00;;;23.45;100.00
19777;BME280;10047;42.490;26.012;2023-08-06T09:41:58;99216.56;;;23.99;100.00
19777;BME280;10047;42.490;26.012;2023-08-06T09:44:25;99240.31;;;24.14;100.00
19777;BME280;10047;42.490;26.012;2023-08-06T09:46:52;99202.22;;;24.22;100.00
19777;BME280;10047;42.490;26.012;2023-08-06T09:49:20;99262.09;;;24.83;100.00
19777;BME280;10047;42.490;26.012;2023-08-06T09:51:50;99258.59;;;24.39;100.00
19777;BME280;10047;42.490;26.012;2023-08-06T09:54:17;99296.72;;;24.21;100.00
19777;BME280;10047;42.490;26.012;2023-08-06T09:56:44;99257.84;;;24.47;100.00
19777;BME280;10047;42.490;26.012;2023-08-06T09:59:09;99266.50;;;23.93;100.00
19777;BME280;10047;42.490;26.012;2023-08-06T10:01:36;99352.63;;;24.97;100.00
19777;BME280;10047;42.490;26.012;2023-08-06T10:04:04;99416.34;;;24.56;100.00
19777;BME280;10047;42.490;26.012;2023-08-06T10:06:31;99450.88;;;24.85;100.00
19777;BME280;10047;42.490;26.012;2023-08-06T10:08:58;99410.13;;;24.94;100.00
19777;BME280;10047;42.490;26.012;2023-08-06T10:11:24;99487.97;;;25.50;100.00
19777;BME280;10047;42.490;26.012;2023-08-06T10:13:54;99480.09;;;24.97;100.00
19777;BME280;10047;42.490;26.012;2023-08-06T10:16:21;99587.91;;;24.85;100.00
19777;BME280;10047;42.490;26.012;2023-08-06T10:18:47;99618.72;;;24.89;100.00
19777;BME280;10047;42.490;26.012;2023-08-06T10:21:14;99634.19;;;24.72;100.00
19777;BME280;10047;42.490;26.012;2023-08-06T10:23:41;99659.94;;;25.21;100.00
19777;BME280;10047;42.490;26.012;2023-08-06T10:26:07;99661.78;;;26.28;100.00
19777;BME280;10047;42.490;26.012;2023-08-06T10:28:39;99637.31;;;26.46;100.00
19777;BME280;10047;42.490;26.012;2023-08-06T10:31:05;99700.09;;;26.88;100.00
19777;BME280;10047;42.490;26.012;2023-08-06T10:33:44;99724.50;;;27.05;100.00
19777;BME280;10047;42.490;26.012;2023-08-06T10:36:10;99771.75;;;27.71;100.00
19777;BME280;10047;42.490;26.012;2023-08-06T10:38:46;99664.88;;;27.60;100.00
19777;BME280;10047;42.490;26.012;2023-08-06T10:41:22;99652.47;;;27.62;100.00
19777;BME280;10047;42.490;26.012;2023-08-06T10:43:48;99667.00;;;28.54;100.00
19777;BME280;10047;42.490;26.012;2023-08-06T10:46:27;99655.59;;;27.65;100.00
19777;BME280;10047;42.490;26.012;2023-08-06T10:48:52;99599.34;;;27.95;100.00
19777;BME280;10047;42.490;26.012;2023-08-06T10:51:18;99582.66;;;28.04;100.00
19777;BME280;10047;42.490;26.012;2023-08-06T10:53:45;99530.00;;;27.59;100.00
19777;BME280;10047;42.490;26.012;2023-08-06T10:56:14;99547.44;;;28.47;100.00
19777;BME280;10047;42.490;26.012;2023-08-06T10:58:41;99507.78;;;28.82;100.00
19777;BME280;10047;42.490;26.012;2023-08-06T11:01:06;99435.34;;;28.66;100.00
19777;BME280;10047;42.490;26.012;2023-08-06T11:03:33;99431.28;;;29.25;100.00
19777;BME280;10047;42.490;26.012;2023-08-06T11:05:59;99407.91;;;28.23;100.00
19777;BME280;10047;42.490;26.012;2023-08-06T11:08:28;99387.97;;;29.15;100.00
19777;BME280;10047;42.490;26.012;2023-08-06T11:10:54;99345.69;;;28.72;100.00
19777;BME280;10047;42.490;26.012;2023-08-06T11:13:21;99346.91;;;28.84;100.00
19777;BME280;10047;42.490;26.012;2023-08-06T11:15:46;99332.63;;;29.18;100.00
19777;BME280;10047;42.490;26.012;2023-08-06T11:18:12;99276.34;;;29.28;100.00
19777;BME280;10047;42.490;26.012;2023-08-06T11:20:39;99261.81;;;29.55;100.00
19777;BME280;10047;42.490;26.012;2023-08-06T11:23:05;99153.22;;;29.93;100.00
19777;BME280;10047;42.490;26.012;2023-08-06T11:25:35;99142.06;;;29.20;100.00
19777;BME280;10047;42.490;26.012;2023-08-06T11:28:01;99154.84;;;29.15;100.00
19777;BME280;10047;42.490;26.012;2023-08-06T11:30:27;99177.97;;;29.40;100.00
19777;BME280;10047;42.490;26.012;2023-08-06T11:32:52;99167.28;;;28.46;100.00
19777;BME280;10047;42.490;26.012;2023-08-06T11:35:18;99185.81;;;27.83;100.00
19777;BME280;10047;42.490;26.012;2023-08-06T11:37:44;99182.56;;;26.39;100.00
19777;BME280;10047;42.490;26.012;2023-08-06T11:40:11;99289.63;;;25.96;100.00
19777;BME280;10047;42.490;26.012;2023-08-06T11:42:37;99212.72;;;25.17;100.00
19777;BME280;10047;42.490;26.012;2023-08-06T11:45:03;99233.84;;;25.39;100.00
19777;BME280;10047;42.490;26.012;2023-08-06T11:47:29;99183.78;;;24.51;100.00
19777;BME280;10047;42.490;26.012;2023-08-06T11:49:55;99145.38;;;25.47;100.00
19777;BME280;10047;42.490;26.012;2023-08-06T11:52:22;99175.84;;;26.13;100.00
19777;BME280;10047;42.490;26.012;2023-08-06T11:55:08;99223.53;;;25.55;100.00
19777;BME280;10047;42.490;26.012;2023-08-06T11:57:38;99219.25;;;25.21;100.00
19777;BME280;10047;42.490;26.012;2023-08-06T12:00:09;99218.16;;;24.62;100.00
19777;BME280;10047;42.490;26.012;2023-08-06T12:02:36;99210.41;;;25.14;100.00
19777;BME280;10047;42.490;26.012;2023-08-06T12:07:33;99188.16;;;25.11;100.00
19777;BME280;10047;42.490;26.012;2023-08-06T12:10:01;99149.78;;;26.13;100.00
19777;BME280;10047;42.490;26.012;2023-08-06T12:12:27;99153.75;;;25.25;100.00
19777;BME280;10047;42.490;26.012;2023-08-06T12:14:54;99114.72;;;25.75;100.00
19777;BME280;10047;42.490;26.012;2023-08-06T12:17:20;99108.75;;;25.07;100.00
19777;BME280;10047;42.490;26.012;2023-08-06T12:19:45;99173.31;;;25.37;100.00
19777;BME280;10047;42.490;26.012;2023-08-06T12:22:14;99144.97;;;25.76;100.00
19777;BME280;10047;42.490;26.012;2023-08-06T12:24:44;99090.41;;;25.50;100.00
19777;BME280;10047;42.490;26.012;2023-08-06T12:27:10;99151.09;;;26.17;100.00
19777;BME280;10047;42.490;26.012;2023-08-06T12:29:37;99136.75;;;26.37;100.00
19777;BME280;10047;42.490;26.012;2023-08-06T12:32:03;99036.47;;;26.80;100.00
19777;BME280;10047;42.490;26.012;2023-08-06T12:34:29;99129.31;;;27.52;100.00
19777;BME280;10047;42.490;26.012;2023-08-06T12:36:54;99076.00;;;27.69;100.00
19777;BME280;10047;42.490;26.012;2023-08-06T12:39:19;99148.81;;;26.38;100.00
19777;BME280;10047;42.490;26.012;2023-08-06T12:41:45;99092.78;;;26.42;100.00
19777;BME280;10047;42.490;26.012;2023-08-06T12:44:12;99166.63;;;27.29;100.00